createdAt,value
2018-05-12T00:04:48.006Z,25.47
2018-05-12T00:09:43.955Z,24.10
2018-05-12T00:14:39.861Z,25.00
2018-05-12T00:19:35.692Z,28.00
2018-05-12T00:24:31.550Z,26.47
2018-05-12T00:29:27.426Z,25.77
2018-05-12T00:34:23.284Z,25.00
2018-05-12T00:39:19.123Z,24.90
2018-05-12T00:44:15.020Z,24.43
2018-05-12T00:49:10.855Z,24.13
2018-05-12T00:54:06.706Z,24.47
2018-05-12T00:59:02.560Z,25.20
2018-05-12T01:03:58.483Z,25.93
2018-05-12T01:08:54.366Z,25.83
2018-05-12T01:13:50.210Z,24.20
2018-05-12T01:18:46.072Z,25.60
2018-05-12T01:23:41.947Z,25.20
2018-05-12T01:28:37.834Z,25.83
2018-05-12T01:33:33.701Z,27.00
2018-05-12T01:38:29.589Z,25.80
2018-05-12T01:43:25.453Z,25.37
2018-05-12T01:48:21.302Z,26.23
2018-05-12T01:53:17.146Z,26.17
2018-05-12T01:58:20.105Z,27.20
2018-05-12T02:03:15.987Z,26.63
2018-05-12T02:08:11.848Z,26.10
2018-05-12T02:13:07.727Z,25.80
2018-05-12T02:18:03.719Z,25.20
2018-05-12T02:22:59.632Z,24.50
2018-05-12T02:27:55.493Z,21.83
2018-05-12T02:32:51.380Z,24.70
2018-05-12T02:37:47.257Z,24.93
2018-05-12T02:42:43.153Z,25.53
2018-05-12T02:47:39.023Z,25.10
2018-05-12T02:52:34.879Z,26.13
2018-05-12T02:57:30.730Z,28.93
2018-05-12T03:02:26.609Z,26.37
2018-05-12T03:07:22.452Z,26.50
2018-05-12T03:12:18.311Z,26.80
2018-05-12T03:17:14.181Z,26.17
2018-05-12T03:22:10.930Z,24.67
2018-05-12T03:27:06.787Z,24.43
2018-05-12T03:32:02.669Z,25.57
2018-05-12T03:36:58.538Z,24.90
2018-05-12T03:41:54.387Z,24.87
2018-05-12T03:46:50.266Z,25.00
2018-05-12T03:51:46.165Z,23.67
2018-05-12T03:56:42.052Z,24.20
2018-05-12T04:01:37.880Z,26.23
2018-05-12T04:06:39.831Z,24.73
2018-05-12T04:11:41.733Z,24.10
2018-05-12T04:16:37.565Z,23.77
2018-05-12T04:21:33.454Z,24.87
2018-05-12T04:26:29.327Z,24.73
2018-05-12T04:31:25.166Z,28.90
2018-05-12T04:36:21.023Z,31.27
2018-05-12T04:41:16.896Z,36.53
2018-05-12T04:46:12.764Z,34.10
2018-05-12T04:51:08.648Z,37.27
2018-05-12T04:56:04.521Z,40.13
2018-05-12T05:01:00.403Z,45.40
2018-05-12T05:05:56.307Z,41.80
2018-05-12T05:10:52.181Z,37.57
2018-05-12T05:15:48.076Z,36.23
2018-05-12T05:20:43.971Z,36.47
2018-05-12T05:25:39.830Z,37.27
2018-05-12T05:30:35.690Z,34.30
2018-05-12T05:35:31.621Z,36.07
2018-05-12T05:40:27.454Z,33.53
2018-05-12T05:45:23.279Z,32.13
2018-05-12T05:50:19.279Z,30.60
2018-05-12T05:55:15.073Z,32.17
2018-05-12T06:00:10.993Z,31.10
2018-05-12T06:05:06.878Z,32.60
2018-05-12T06:10:02.847Z,32.77
2018-05-12T06:14:58.794Z,30.60
2018-05-12T06:19:54.644Z,32.97
2018-05-12T06:24:50.543Z,32.80
2018-05-12T06:29:46.411Z,31.70
2018-05-12T06:34:42.286Z,33.33
2018-05-12T06:39:38.161Z,33.90
2018-05-12T06:44:34.038Z,33.10
2018-05-12T06:49:29.905Z,33.27
2018-05-12T06:54:25.814Z,30.60
2018-05-12T06:59:21.723Z,30.37
2018-05-12T07:04:17.582Z,30.90
2018-05-12T07:09:13.424Z,30.37
2018-05-12T07:14:09.289Z,30.10
2018-05-12T07:19:06.179Z,30.57
2018-05-12T07:24:02.023Z,30.00
2018-05-12T07:28:57.904Z,30.20
2018-05-12T07:33:53.792Z,29.60
2018-05-12T07:38:49.700Z,29.13
2018-05-12T07:43:45.585Z,29.70
2018-05-12T07:48:41.486Z,28.80
2018-05-12T07:53:37.370Z,27.30
2018-05-12T07:58:33.238Z,30.43
2018-05-12T08:03:29.135Z,30.10
2018-05-12T08:08:25.001Z,25.17
2018-05-12T08:13:20.914Z,24.57
2018-05-12T08:18:16.781Z,24.00
2018-05-12T08:23:12.692Z,23.17
2018-05-12T08:28:08.548Z,22.20
2018-05-12T08:33:04.428Z,21.03
2018-05-12T08:38:00.343Z,16.60
2018-05-12T08:42:56.210Z,18.48
2018-05-12T08:47:52.114Z,16.62
2018-05-12T08:52:47.953Z,15.20
2018-05-12T08:57:43.811Z,13.50
2018-05-12T09:02:39.692Z,14.13
2018-05-12T09:07:35.593Z,14.13
2018-05-12T09:12:31.482Z,13.88
2018-05-12T09:17:27.354Z,14.90
2018-05-12T09:22:23.230Z,10.35
2018-05-12T09:27:19.079Z,9.57
2018-05-12T09:32:14.999Z,9.93
2018-05-12T09:37:10.939Z,11.85
2018-05-12T09:42:06.763Z,20.15
2018-05-12T09:47:02.617Z,11.12
2018-05-12T09:51:58.560Z,11.00
2018-05-12T09:56:54.438Z,10.88
2018-05-12T10:01:50.271Z,8.80
2018-05-12T10:06:46.132Z,10.13
2018-05-12T10:11:42.025Z,9.02
2018-05-12T10:16:37.889Z,22.52
2018-05-12T10:21:33.796Z,7.60
2018-05-12T10:26:29.717Z,8.55
2018-05-12T10:31:25.613Z,7.80
2018-05-12T10:36:21.766Z,7.47
2018-05-12T10:41:17.631Z,6.37
2018-05-12T10:46:13.603Z,6.53
2018-05-12T10:51:09.489Z,5.95
2018-05-12T10:56:05.384Z,7.37
2018-05-12T11:01:01.269Z,7.55
2018-05-12T11:05:57.141Z,12.25
2018-05-12T11:10:53.012Z,6.70
2018-05-12T11:15:48.923Z,6.70
2018-05-12T11:20:44.779Z,6.90
2018-05-12T11:25:40.611Z,6.75
2018-05-12T11:30:36.467Z,8.57
2018-05-12T11:35:32.338Z,6.60
2018-05-12T11:40:28.210Z,6.95
2018-05-12T11:45:24.066Z,6.55
2018-05-12T11:50:19.895Z,6.80
2018-05-12T11:55:15.749Z,6.70
2018-05-12T12:00:11.797Z,8.45
2018-05-12T12:05:07.693Z,10.10
2018-05-12T12:10:03.579Z,7.65
2018-05-12T12:14:59.465Z,6.53
2018-05-12T12:19:55.568Z,5.10
2018-05-12T12:24:51.408Z,5.90
2018-05-12T12:29:47.283Z,5.85
2018-05-12T12:34:43.182Z,5.87
2018-05-12T12:39:46.105Z,5.10
2018-05-12T12:44:42.006Z,4.87
2018-05-12T12:49:37.886Z,3.97
2018-05-12T12:54:33.758Z,3.35
2018-05-12T12:59:29.668Z,3.65
2018-05-12T13:04:25.533Z,4.10
2018-05-12T13:09:21.410Z,3.60
2018-05-12T13:14:17.285Z,4.57
2018-05-12T13:19:13.187Z,4.03
2018-05-12T13:24:09.057Z,4.07
2018-05-12T13:29:04.944Z,4.40
2018-05-12T13:34:00.801Z,3.30
2018-05-12T13:38:56.676Z,3.87
2018-05-12T13:43:52.575Z,3.80
2018-05-12T13:48:48.418Z,3.47
2018-05-12T13:53:44.302Z,6.12
2018-05-12T13:58:40.161Z,4.07
2018-05-12T14:03:36.013Z,5.10
2018-05-12T14:08:31.993Z,4.12
2018-05-12T14:13:27.873Z,4.75
2018-05-12T14:18:23.748Z,4.15
2018-05-12T14:23:19.615Z,12.88
2018-05-12T14:28:15.495Z,5.55
2018-05-12T14:33:11.369Z,4.70
2018-05-12T14:38:07.270Z,5.00
2018-05-12T14:43:03.159Z,5.15
2018-05-12T14:47:59.039Z,10.63
2018-05-12T14:52:54.962Z,7.03
2018-05-12T14:57:50.812Z,5.65
2018-05-12T15:02:46.689Z,5.22
2018-05-12T15:07:42.605Z,6.22
2018-05-12T15:12:38.501Z,4.80
2018-05-12T15:17:34.460Z,4.87
2018-05-12T15:22:30.346Z,5.20
2018-05-12T15:27:26.209Z,6.18
2018-05-12T15:32:22.125Z,4.70
2018-05-12T15:37:19.184Z,5.65
2018-05-12T15:42:15.063Z,5.35
2018-05-12T15:47:10.923Z,6.10
2018-05-12T15:52:06.809Z,5.35
2018-05-12T15:57:02.881Z,6.28
2018-05-12T16:01:58.796Z,6.25
2018-05-12T16:06:54.653Z,6.40
2018-05-12T16:11:50.536Z,5.75
2018-05-12T16:16:46.372Z,5.22
2018-05-12T16:21:42.237Z,8.48
2018-05-12T16:26:38.159Z,4.75
2018-05-12T16:31:34.058Z,6.40
2018-05-12T16:36:29.981Z,6.50
2018-05-12T16:41:25.824Z,8.65
2018-05-12T16:46:21.687Z,7.75
2018-05-12T16:51:17.634Z,12.43
2018-05-12T16:56:13.509Z,7.05
2018-05-12T17:01:09.388Z,18.45
2018-05-12T17:06:05.291Z,7.43
2018-05-12T17:11:01.158Z,8.18
2018-05-12T17:15:57.025Z,14.98
2018-05-12T17:20:52.909Z,10.75
2018-05-12T17:25:48.772Z,9.40
2018-05-12T17:30:44.714Z,8.38
2018-05-12T17:35:40.830Z,7.72
2018-05-12T17:40:36.924Z,13.43
2018-05-12T17:45:32.812Z,8.00
2018-05-12T17:50:28.701Z,7.80
2018-05-12T17:55:24.577Z,7.65
2018-05-12T18:00:20.947Z,8.23
2018-05-12T18:05:16.996Z,10.05
2018-05-12T18:10:13.112Z,8.50
2018-05-12T18:15:08.972Z,15.10
2018-05-12T18:20:04.854Z,8.88
2018-05-12T18:25:00.859Z,8.27
2018-05-12T18:29:56.821Z,8.38
2018-05-12T18:34:52.704Z,7.90
2018-05-12T18:39:48.749Z,8.63
2018-05-12T18:44:44.780Z,10.20
2018-05-12T18:49:40.874Z,8.52
2018-05-12T18:54:36.740Z,7.87
2018-05-12T18:59:32.600Z,8.57
2018-05-12T19:04:28.584Z,9.27
2018-05-12T19:09:24.450Z,9.50
2018-05-12T19:14:20.291Z,8.50
2018-05-12T19:19:16.177Z,9.20
2018-05-12T19:24:12.103Z,9.87
2018-05-12T19:29:08.016Z,10.40
2018-05-12T19:34:03.929Z,11.23
2018-05-12T19:38:59.849Z,11.10
2018-05-12T19:43:55.749Z,9.50
2018-05-12T19:48:51.629Z,10.10
2018-05-12T19:53:47.493Z,15.37
2018-05-12T19:58:43.417Z,10.37
2018-05-12T20:03:39.301Z,10.30
2018-05-12T20:08:35.188Z,11.00
2018-05-12T20:13:31.093Z,10.50
2018-05-12T20:18:26.951Z,10.50
2018-05-12T20:23:22.877Z,10.57
2018-05-12T20:28:18.835Z,11.70
2018-05-12T20:33:14.714Z,11.77
2018-05-12T20:38:10.628Z,11.23
2018-05-12T20:43:06.523Z,14.60
2018-05-12T20:48:02.401Z,12.03
2018-05-12T20:52:58.264Z,10.73
2018-05-12T20:57:54.107Z,11.20
2018-05-12T21:02:50.003Z,11.13
2018-05-12T21:07:45.859Z,11.73
2018-05-12T21:12:41.905Z,11.50
2018-05-12T21:17:37.785Z,11.30
2018-05-12T21:22:33.675Z,10.97
2018-05-12T21:27:29.561Z,10.77
2018-05-12T21:32:25.509Z,10.70
2018-05-12T21:37:21.347Z,11.40
2018-05-12T21:42:17.228Z,10.50
2018-05-12T21:47:13.084Z,11.63
2018-05-12T21:52:08.997Z,11.70
2018-05-12T21:57:04.881Z,11.70
2018-05-12T22:02:00.738Z,12.67
2018-05-12T22:06:56.641Z,11.43
2018-05-12T22:11:52.511Z,10.93
2018-05-12T22:16:48.457Z,11.50
2018-05-12T22:21:44.345Z,10.97
2018-05-12T22:26:40.179Z,12.50
2018-05-12T22:31:36.035Z,12.20
2018-05-12T22:36:31.949Z,12.07
2018-05-12T22:41:27.799Z,13.80
2018-05-12T22:46:23.719Z,12.47
2018-05-12T22:51:19.600Z,13.27
2018-05-12T22:56:15.473Z,12.73
2018-05-12T23:01:11.365Z,12.60
2018-05-12T23:06:07.220Z,12.57
2018-05-12T23:11:03.105Z,12.77
2018-05-12T23:15:58.985Z,13.33
2018-05-12T23:20:54.893Z,13.27
2018-05-12T23:25:50.776Z,13.33
2018-05-12T23:30:46.666Z,13.73
2018-05-12T23:35:42.508Z,14.23
2018-05-12T23:40:38.404Z,14.17
2018-05-12T23:45:34.243Z,14.80
2018-05-12T23:50:30.129Z,13.73
2018-05-12T23:55:26.009Z,14.03
